sensor_id;sensor_type;location;lat;lon;timestamp;temperature;humidity
7290;DHT22;63176;52.678;13.250;2024-03-07T00:02:17;6.90;99.90
7290;DHT22;63176;52.678;13.250;2024-03-07T00:04:43;6.90;99.90
7290;DHT22;63176;52.678;13.250;2024-03-07T00:07:09;6.90;99.90
7290;DHT22;63176;52.678;13.250;2024-03-07T00:09:35;6.90;99.90
7290;DHT22;63176;52.678;13.250;2024-03-07T00:12:01;6.90;99.90
7290;DHT22;63176;52.678;13.250;2024-03-07T00:14:27;6.90;99.90
7290;DHT22;63176;52.678;13.250;2024-03-07T00:16:56;6.90;99.90
7290;DHT22;63176;52.678;13.250;2024-03-07T00:19:25;6.90;99.90
7290;DHT22;63176;52.678;13.250;2024-03-07T00:21:58;6.80;99.90
7290;DHT22;63176;52.678;13.250;2024-03-07T00:24:24;6.80;99.90
7290;DHT22;63176;52.678;13.250;2024-03-07T00:26:50;6.80;99.90
7290;DHT22;63176;52.678;13.250;2024-03-07T00:29:17;6.80;99.90
7290;DHT22;63176;52.678;13.250;2024-03-07T00:31:44;6.80;99.90
7290;DHT22;63176;52.678;13.250;2024-03-07T00:34:14;6.80;99.90
7290;DHT22;63176;52.678;13.250;2024-03-07T00:36:42;6.80;99.90
7290;DHT22;63176;52.678;13.250;2024-03-07T00:39:08;6.80;99.90
7290;DHT22;63176;52.678;13.250;2024-03-07T00:41:34;6.80;99.90
7290;DHT22;63176;52.678;13.250;2024-03-07T00:44:00;6.80;99.90
7290;DHT22;63176;52.678;13.250;2024-03-07T00:46:25;6.80;99.90
7290;DHT22;63176;52.678;13.250;2024-03-07T00:48:51;6.80;99.90
7290;DHT22;63176;52.678;13.250;2024-03-07T00:51:17;6.80;99.90
7290;DHT22;63176;52.678;13.250;2024-03-07T00:53:42;6.80;99.90
7290;DHT22;63176;52.678;13.250;2024-03-07T00:56:08;6.80;99.90
7290;DHT22;63176;52.678;13.250;2024-03-07T00:58:33;6.80;99.90
7290;DHT22;63176;52.678;13.250;2024-03-07T01:01:00;6.80;99.90
7290;DHT22;63176;52.678;13.250;2024-03-07T01:03:26;6.80;99.90
7290;DHT22;63176;52.678;13.250;2024-03-07T01:05:52;6.80;99.90
7290;DHT22;63176;52.678;13.250;2024-03-07T01:08:18;6.80;99.90
7290;DHT22;63176;52.678;13.250;2024-03-07T01:10:44;6.80;99.90
7290;DHT22;63176;52.678;13.250;2024-03-07T01:13:09;6.80;99.90
7290;DHT22;63176;52.678;13.250;2024-03-07T01:15:44;6.80;99.90
7290;DHT22;63176;52.678;13.250;2024-03-07T01:18:10;6.70;99.90
7290;DHT22;63176;52.678;13.250;2024-03-07T01:20:36;6.80;99.90
7290;DHT22;63176;52.678;13.250;2024-03-07T01:23:02;6.70;99.90
7290;DHT22;63176;52.678;13.250;2024-03-07T01:25:27;6.70;99.90
7290;DHT22;63176;52.678;13.250;2024-03-07T01:27:53;6.70;99.90
7290;DHT22;63176;52.678;13.250;2024-03-07T01:30:18;6.70;99.90
7290;DHT22;63176;52.678;13.250;2024-03-07T01:32:44;6.70;99.90
7290;DHT22;63176;52.678;13.250;2024-03-07T01:35:10;6.70;99.90
7290;DHT22;63176;52.678;13.250;2024-03-07T01:37:35;6.70;99.90
7290;DHT22;63176;52.678;13.250;2024-03-07T01:40:03;6.70;99.90
7290;DHT22;63176;52.678;13.250;2024-03-07T01:42:30;6.70;99.90
7290;DHT22;63176;52.678;13.250;2024-03-07T01:44:56;6.60;99.90
7290;DHT22;63176;52.678;13.250;2024-03-07T01:47:22;6.50;99.90
7290;DHT22;63176;52.678;13.250;2024-03-07T01:49:48;6.50;99.90
7290;DHT22;63176;52.678;13.250;2024-03-07T01:52:14;6.50;99.90
7290;DHT22;63176;52.678;13.250;2024-03-07T01:54:40;6.50;99.90
7290;DHT22;63176;52.678;13.250;2024-03-07T01:57:07;6.50;99.90
7290;DHT22;63176;52.678;13.250;2024-03-07T01:59:33;6.50;99.90
7290;DHT22;63176;52.678;13.250;2024-03-07T02:02:00;6.40;99.90
7290;DHT22;63176;52.678;13.250;2024-03-07T02:04:28;6.40;99.90
7290;DHT22;63176;52.678;13.250;2024-03-07T02:06:54;6.40;99.90
7290;DHT22;63176;52.678;13.250;2024-03-07T02:09:20;6.30;99.90
7290;DHT22;63176;52.678;13.250;2024-03-07T02:11:49;6.30;99.90
7290;DHT22;63176;52.678;13.250;2024-03-07T02:14:15;6.20;99.90
7290;DHT22;63176;52.678;13.250;2024-03-07T02:16:42;6.10;99.90
7290;DHT22;63176;52.678;13.250;2024-03-07T02:19:08;6.10;99.90
7290;DHT22;63176;52.678;13.250;2024-03-07T02:21:35;6.00;99.90
7290;DHT22;63176;52.678;13.250;2024-03-07T02:24:02;6.00;99.90
7290;DHT22;63176;52.678;13.250;2024-03-07T02:26:27;5.90;99.90
7290;DHT22;63176;52.678;13.250;2024-03-07T02:28:53;5.90;99.90
7290;DHT22;63176;52.678;13.250;2024-03-07T02:31:19;5.80;99.90
7290;DHT22;63176;52.678;13.250;2024-03-07T02:33:45;5.70;99.90
7290;DHT22;63176;52.678;13.250;2024-03-07T02:36:11;5.70;99.90
7290;DHT22;63176;52.678;13.250;2024-03-07T02:38:38;5.70;99.90
7290;DHT22;63176;52.678;13.250;2024-03-07T02:41:04;5.70;99.90
7290;DHT22;63176;52.678;13.250;2024-03-07T02:43:30;5.80;99.90
7290;DHT22;63176;52.678;13.250;2024-03-07T02:45:55;5.80;99.90
7290;DHT22;63176;52.678;13.250;2024-03-07T02:48:22;5.90;99.90
7290;DHT22;63176;52.678;13.250;2024-03-07T02:50:47;5.90;99.90
7290;DHT22;63176;52.678;13.250;2024-03-07T02:53:13;6.00;99.90
7290;DHT22;63176;52.678;13.250;2024-03-07T02:55:38;5.90;99.90
7290;DHT22;63176;52.678;13.250;2024-03-07T02:58:04;6.00;99.90
7290;DHT22;63176;52.678;13.250;2024-03-07T03:00:30;6.00;99.90
7290;DHT22;63176;52.678;13.250;2024-03-07T03:02:56;6.00;99.90
7290;DHT22;63176;52.678;13.250;2024-03-07T03:05:22;6.00;99.90
7290;DHT22;63176;52.678;13.250;2024-03-07T03:07:48;6.00;99.90
7290;DHT22;63176;52.678;13.250;2024-03-07T03:10:25;6.10;99.90
7290;DHT22;63176;52.678;13.250;2024-03-07T03:12:54;6.10;99.90
7290;DHT22;63176;52.678;13.250;2024-03-07T03:15:21;6.10;99.90
7290;DHT22;63176;52.678;13.250;2024-03-07T03:17:47;6.10;99.90
7290;DHT22;63176;52.678;13.250;2024-03-07T03:20:13;6.10;99.90
7290;DHT22;63176;52.678;13.250;2024-03-07T03:22:54;6.00;99.90
7290;DHT22;63176;52.678;13.250;2024-03-07T03:25:21;6.00;99.90
7290;DHT22;63176;52.678;13.250;2024-03-07T03:27:50;6.00;99.90
7290;DHT22;63176;52.678;13.250;2024-03-07T03:30:16;5.90;99.90
7290;DHT22;63176;52.678;13.250;2024-03-07T03:32:47;5.90;99.90
7290;DHT22;63176;52.678;13.250;2024-03-07T03:35:13;5.90;99.90
7290;DHT22;63176;52.678;13.250;2024-03-07T03:37:40;5.90;99.90
7290;DHT22;63176;52.678;13.250;2024-03-07T03:40:07;5.90;99.90
7290;DHT22;63176;52.678;13.250;2024-03-07T03:42:35;5.90;99.90
7290;DHT22;63176;52.678;13.250;2024-03-07T03:45:02;5.90;99.90
7290;DHT22;63176;52.678;13.250;2024-03-07T03:47:33;6.00;99.90
7290;DHT22;63176;52.678;13.250;2024-03-07T03:49:59;6.00;99.90
7290;DHT22;63176;52.678;13.250;2024-03-07T03:52:25;6.00;99.90
7290;DHT22;63176;52.678;13.250;2024-03-07T03:54:51;6.00;99.90
7290;DHT22;63176;52.678;13.250;2024-03-07T03:57:17;6.00;99.90
7290;DHT22;63176;52.678;13.250;2024-03-07T03:59:43;6.00;99.90
7290;DHT22;63176;52.678;13.250;2024-03-07T04:02:10;6.10;99.90
7290;DHT22;63176;52.678;13.250;2024-03-07T04:04:39;6.10;99.90
7290;DHT22;63176;52.678;13.250;2024-03-07T04:07:05;6.10;99.90
7290;DHT22;63176;52.678;13.250;2024-03-07T04:09:31;6.10;99.90
7290;DHT22;63176;52.678;13.250;2024-03-07T04:11:56;6.10;99.90
7290;DHT22;63176;52.678;13.250;2024-03-07T04:14:23;6.10;99.90
7290;DHT22;63176;52.678;13.250;2024-03-07T04:16:49;6.20;99.90
7290;DHT22;63176;52.678;13.250;2024-03-07T04:19:15;6.20;99.90
7290;DHT22;63176;52.678;13.250;2024-03-07T04:21:40;6.10;99.90
7290;DHT22;63176;52.678;13.250;2024-03-07T04:24:07;6.20;99.90
7290;DHT22;63176;52.678;13.250;2024-03-07T04:26:33;6.20;99.90
7290;DHT22;63176;52.678;13.250;2024-03-07T04:28:58;6.20;99.90
7290;DHT22;63176;52.678;13.250;2024-03-07T04:31:24;6.10;99.90
7290;DHT22;63176;52.678;13.250;2024-03-07T04:33:49;6.10;99.90
7290;DHT22;63176;52.678;13.250;2024-03-07T04:36:16;6.10;99.90
7290;DHT22;63176;52.678;13.250;2024-03-07T04:38:42;6.10;99.90
7290;DHT22;63176;52.678;13.250;2024-03-07T04:41:13;6.10;99.90
7290;DHT22;63176;52.678;13.250;2024-03-07T04:43:40;6.10;99.90
7290;DHT22;63176;52.678;13.250;2024-03-07T04:46:08;6.00;99.90
7290;DHT22;63176;52.678;13.250;2024-03-07T04:48:33;6.00;99.90
7290;DHT22;63176;52.678;13.250;2024-03-07T04:50:59;5.90;99.90
7290;DHT22;63176;52.678;13.250;2024-03-07T04:53:25;6.00;99.90
7290;DHT22;63176;52.678;13.250;2024-03-07T04:55:50;5.90;99.90
7290;DHT22;63176;52.678;13.250;2024-03-07T04:58:16;5.90;99.90
7290;DHT22;63176;52.678;13.250;2024-03-07T05:00:42;5.80;99.90
7290;DHT22;63176;52.678;13.250;2024-03-07T05:03:08;5.80;99.90
7290;DHT22;63176;52.678;13.250;2024-03-07T05:05:35;5.70;99.90
7290;DHT22;63176;52.678;13.250;2024-03-07T05:08:00;5.70;99.90
7290;DHT22;63176;52.678;13.250;2024-03-07T05:10:26;5.70;99.90
7290;DHT22;63176;52.678;13.250;2024-03-07T05:12:55;5.60;99.90
7290;DHT22;63176;52.678;13.250;2024-03-07T05:15:21;5.50;99.90
7290;DHT22;63176;52.678;13.250;2024-03-07T05:17:51;5.50;99.90
7290;DHT22;63176;52.678;13.250;2024-03-07T05:20:17;5.60;99.90
7290;DHT22;63176;52.678;13.250;2024-03-07T05:22:43;5.50;99.90
7290;DHT22;63176;52.678;13.250;2024-03-07T05:25:19;5.40;99.90
7290;DHT22;63176;52.678;13.250;2024-03-07T05:27:48;5.40;99.90
7290;DHT22;63176;52.678;13.250;2024-03-07T05:30:16;5.20;99.90
7290;DHT22;63176;52.678;13.250;2024-03-07T05:32:42;5.10;99.90
7290;DHT22;63176;52.678;13.250;2024-03-07T05:35:08;5.10;99.90
7290;DHT22;63176;52.678;13.250;2024-03-07T05:37:35;5.00;99.90
7290;DHT22;63176;52.678;13.250;2024-03-07T05:40:01;5.00;99.90
7290;DHT22;63176;52.678;13.250;2024-03-07T05:42:29;4.90;99.90
7290;DHT22;63176;52.678;13.250;2024-03-07T05:44:55;4.90;99.90
7290;DHT22;63176;52.678;13.250;2024-03-07T05:47:21;4.90;99.90
7290;DHT22;63176;52.678;13.250;2024-03-07T05:49:47;4.90;99.90
7290;DHT22;63176;52.678;13.250;2024-03-07T05:52:12;4.90;99.90
7290;DHT22;63176;52.678;13.250;2024-03-07T05:54:38;4.90;99.90
7290;DHT22;63176;52.678;13.250;2024-03-07T05:57:04;4.90;99.90
7290;DHT22;63176;52.678;13.250;2024-03-07T05:59:32;4.90;99.90
7290;DHT22;63176;52.678;13.250;2024-03-07T06:01:58;4.90;99.90
7290;DHT22;63176;52.678;13.250;2024-03-07T06:04:24;4.80;99.90
7290;DHT22;63176;52.678;13.250;2024-03-07T06:06:50;4.80;99.90
7290;DHT22;63176;52.678;13.250;2024-03-07T06:09:16;4.80;99.90
7290;DHT22;63176;52.678;13.250;2024-03-07T06:11:47;4.80;99.90
7290;DHT22;63176;52.678;13.250;2024-03-07T06:14:13;4.70;99.90
7290;DHT22;63176;52.678;13.250;2024-03-07T06:16:39;4.70;99.90
7290;DHT22;63176;52.678;13.250;2024-03-07T06:19:07;4.70;99.90
7290;DHT22;63176;52.678;13.250;2024-03-07T06:21:34;4.80;99.90
7290;DHT22;63176;52.678;13.250;2024-03-07T06:24:00;4.70;99.90
7290;DHT22;63176;52.678;13.250;2024-03-07T06:26:29;4.70;99.90
7290;DHT22;63176;52.678;13.250;2024-03-07T06:29:07;4.70;99.90
7290;DHT22;63176;52.678;13.250;2024-03-07T06:31:33;4.70;99.90
7290;DHT22;63176;52.678;13.250;2024-03-07T06:34:00;4.70;99.90
7290;DHT22;63176;52.678;13.250;2024-03-07T06:36:25;4.70;99.90
7290;DHT22;63176;52.678;13.250;2024-03-07T06:38:51;4.80;99.90
7290;DHT22;63176;52.678;13.250;2024-03-07T06:41:17;4.80;99.90
7290;DHT22;63176;52.678;13.250;2024-03-07T06:43:46;4.80;99.90
7290;DHT22;63176;52.678;13.250;2024-03-07T06:46:12;4.80;99.90
7290;DHT22;63176;52.678;13.250;2024-03-07T06:48:38;4.90;99.90
7290;DHT22;63176;52.678;13.250;2024-03-07T06:51:07;4.90;99.90
7290;DHT22;63176;52.678;13.250;2024-03-07T06:53:33;4.90;99.90
7290;DHT22;63176;52.678;13.250;2024-03-07T06:55:59;5.00;99.90
7290;DHT22;63176;52.678;13.250;2024-03-07T06:58:25;5.00;99.90
7290;DHT22;63176;52.678;13.250;2024-03-07T07:00:51;5.10;99.90
7290;DHT22;63176;52.678;13.250;2024-03-07T07:03:20;5.10;99.90
7290;DHT22;63176;52.678;13.250;2024-03-07T07:05:48;5.10;99.90
7290;DHT22;63176;52.678;13.250;2024-03-07T07:08:14;5.20;99.90
7290;DHT22;63176;52.678;13.250;2024-03-07T07:10:40;5.20;99.90
7290;DHT22;63176;52.678;13.250;2024-03-07T07:13:09;5.20;99.90
7290;DHT22;63176;52.678;13.250;2024-03-07T07:15:36;5.30;99.90
7290;DHT22;63176;52.678;13.250;2024-03-07T07:18:03;5.30;99.90
7290;DHT22;63176;52.678;13.250;2024-03-07T07:20:28;5.40;99.90
7290;DHT22;63176;52.678;13.250;2024-03-07T07:22:54;5.40;99.90
7290;DHT22;63176;52.678;13.250;2024-03-07T07:25:22;5.40;99.90
7290;DHT22;63176;52.678;13.250;2024-03-07T07:27:51;5.40;99.90
7290;DHT22;63176;52.678;13.250;2024-03-07T07:30:21;5.50;99.90
7290;DHT22;63176;52.678;13.250;2024-03-07T07:32:51;5.60;99.90
7290;DHT22;63176;52.678;13.250;2024-03-07T07:35:19;5.60;99.90
7290;DHT22;63176;52.678;13.250;2024-03-07T07:37:47;5.60;99.90
7290;DHT22;63176;52.678;13.250;2024-03-07T07:40:15;5.70;99.90
7290;DHT22;63176;52.678;13.250;2024-03-07T07:42:44;5.70;99.90
7290;DHT22;63176;52.678;13.250;2024-03-07T07:45:12;5.70;99.90
7290;DHT22;63176;52.678;13.250;2024-03-07T07:47:41;5.80;99.90
7290;DHT22;63176;52.678;13.250;2024-03-07T07:52:58;6.00;99.90
7290;DHT22;63176;52.678;13.250;2024-03-07T07:55:25;6.00;99.90
7290;DHT22;63176;52.678;13.250;2024-03-07T07:57:53;6.10;99.90
7290;DHT22;63176;52.678;13.250;2024-03-07T08:00:20;6.20;99.90
7290;DHT22;63176;52.678;13.250;2024-03-07T08:02:52;6.20;99.90
7290;DHT22;63176;52.678;13.250;2024-03-07T08:05:22;6.30;99.90
7290;DHT22;63176;52.678;13.250;2024-03-07T08:07:53;6.20;99.90
7290;DHT22;63176;52.678;13.250;2024-03-07T08:10:19;6.30;99.90
7290;DHT22;63176;52.678;13.250;2024-03-07T08:12:45;6.30;99.90
7290;DHT22;63176;52.678;13.250;2024-03-07T08:15:12;6.40;99.90
7290;DHT22;63176;52.678;13.250;2024-03-07T08:17:43;6.50;99.90
7290;DHT22;63176;52.678;13.250;2024-03-07T08:20:16;6.60;99.90
7290;DHT22;63176;52.678;13.250;2024-03-07T08:22:44;6.70;99.90
7290;DHT22;63176;52.678;13.250;2024-03-07T08:25:11;7.00;99.90
7290;DHT22;63176;52.678;13.250;2024-03-07T08:27:38;7.20;99.90
7290;DHT22;63176;52.678;13.250;2024-03-07T08:30:05;7.40;99.90
7290;DHT22;63176;52.678;13.250;2024-03-07T08:32:35;7.60;99.90
7290;DHT22;63176;52.678;13.250;2024-03-07T08:35:04;7.70;99.90
7290;DHT22;63176;52.678;13.250;2024-03-07T08:37:42;7.60;99.90
7290;DHT22;63176;52.678;13.250;2024-03-07T08:40:10;7.60;99.90
7290;DHT22;63176;52.678;13.250;2024-03-07T08:42:42;7.70;99.90
7290;DHT22;63176;52.678;13.250;2024-03-07T08:45:08;7.80;99.90
7290;DHT22;63176;52.678;13.250;2024-03-07T08:47:37;8.00;99.90
7290;DHT22;63176;52.678;13.250;2024-03-07T08:50:04;8.10;99.90
7290;DHT22;63176;52.678;13.250;2024-03-07T08:52:37;8.20;99.90
7290;DHT22;63176;52.678;13.250;2024-03-07T08:55:03;8.40;99.90
7290;DHT22;63176;52.678;13.250;2024-03-07T08:57:30;8.70;99.90
7290;DHT22;63176;52.678;13.250;2024-03-07T08:59:56;9.00;99.90
7290;DHT22;63176;52.678;13.250;2024-03-07T09:02:22;9.30;99.90
7290;DHT22;63176;52.678;13.250;2024-03-07T09:04:47;9.70;99.90
7290;DHT22;63176;52.678;13.250;2024-03-07T09:07:13;10.20;99.90
7290;DHT22;63176;52.678;13.250;2024-03-07T09:09:43;10.60;99.90
7290;DHT22;63176;52.678;13.250;2024-03-07T09:12:09;11.10;99.90
7290;DHT22;63176;52.678;13.250;2024-03-07T09:14:35;11.30;99.90
7290;DHT22;63176;52.678;13.250;2024-03-07T09:17:01;11.50;99.90
7290;DHT22;63176;52.678;13.250;2024-03-07T09:19:27;11.70;99.90
7290;DHT22;63176;52.678;13.250;2024-03-07T09:21:54;11.80;99.90
7290;DHT22;63176;52.678;13.250;2024-03-07T09:24:20;11.80;99.90
7290;DHT22;63176;52.678;13.250;2024-03-07T09:26:52;11.70;99.90
7290;DHT22;63176;52.678;13.250;2024-03-07T09:29:19;11.60;99.90
7290;DHT22;63176;52.678;13.250;2024-03-07T09:31:45;11.40;99.90
7290;DHT22;63176;52.678;13.250;2024-03-07T09:34:12;11.10;99.90
7290;DHT22;63176;52.678;13.250;2024-03-07T09:36:39;11.10;99.90
7290;DHT22;63176;52.678;13.250;2024-03-07T09:39:10;11.10;99.90
7290;DHT22;63176;52.678;13.250;2024-03-07T09:41:38;11.10;99.90
7290;DHT22;63176;52.678;13.250;2024-03-07T09:44:05;11.20;99.90
7290;DHT22;63176;52.678;13.250;2024-03-07T09:46:31;11.50;99.90
7290;DHT22;63176;52.678;13.250;2024-03-07T09:48:58;11.70;99.90
7290;DHT22;63176;52.678;13.250;2024-03-07T09:51:24;12.00;99.90
7290;DHT22;63176;52.678;13.250;2024-03-07T09:53:51;12.20;99.90
7290;DHT22;63176;52.678;13.250;2024-03-07T09:56:20;12.10;99.90
7290;DHT22;63176;52.678;13.250;2024-03-07T09:58:56;12.10;99.90
7290;DHT22;63176;52.678;13.250;2024-03-07T10:01:25;12.30;99.90
7290;DHT22;63176;52.678;13.250;2024-03-07T10:03:58;12.30;99.90
7290;DHT22;63176;52.678;13.250;2024-03-07T10:06:24;12.50;99.90
7290;DHT22;63176;52.678;13.250;2024-03-07T10:08:52;12.60;99.90
7290;DHT22;63176;52.678;13.250;2024-03-07T10:11:18;12.90;99.90
7290;DHT22;63176;52.678;13.250;2024-03-07T10:13:46;12.90;99.90
7290;DHT22;63176;52.678;13.250;2024-03-07T10:16:16;13.30;99.90
7290;DHT22;63176;52.678;13.250;2024-03-07T10:18:43;13.50;99.90
7290;DHT22;63176;52.678;13.250;2024-03-07T10:21:09;13.40;99.90
7290;DHT22;63176;52.678;13.250;2024-03-07T10:23:36;13.30;99.90
7290;DHT22;63176;52.678;13.250;2024-03-07T10:26:05;13.50;99.90
7290;DHT22;63176;52.678;13.250;2024-03-07T10:28:31;13.80;99.90
7290;DHT22;63176;52.678;13.250;2024-03-07T10:30:57;13.90;99.90
7290;DHT22;63176;52.678;13.250;2024-03-07T10:33:27;14.20;99.90
7290;DHT22;63176;52.678;13.250;2024-03-07T10:35:53;14.60;99.90
7290;DHT22;63176;52.678;13.250;2024-03-07T10:38:19;14.70;99.90
7290;DHT22;63176;52.678;13.250;2024-03-07T10:40:53;14.60;99.90
7290;DHT22;63176;52.678;13.250;2024-03-07T10:43:20;14.70;99.90
7290;DHT22;63176;52.678;13.250;2024-03-07T10:45:48;14.50;99.90
7290;DHT22;63176;52.678;13.250;2024-03-07T10:48:18;14.20;99.90
7290;DHT22;63176;52.678;13.250;2024-03-07T10:50:50;14.00;99.90
7290;DHT22;63176;52.678;13.250;2024-03-07T10:56:18;13.10;99.90
7290;DHT22;63176;52.678;13.250;2024-03-07T11:01:23;12.60;99.90
7290;DHT22;63176;52.678;13.250;2024-03-07T11:03:49;12.40;99.90
7290;DHT22;63176;52.678;13.250;2024-03-07T11:06:18;12.10;99.90
7290;DHT22;63176;52.678;13.250;2024-03-07T11:08:44;11.80;99.90
7290;DHT22;63176;52.678;13.250;2024-03-07T11:11:11;11.80;99.90
7290;DHT22;63176;52.678;13.250;2024-03-07T11:13:38;11.80;99.90
7290;DHT22;63176;52.678;13.250;2024-03-07T11:16:05;11.80;99.90
7290;DHT22;63176;52.678;13.250;2024-03-07T11:18:31;11.80;99.90
7290;DHT22;63176;52.678;13.250;2024-03-07T11:20:56;11.70;99.90
7290;DHT22;63176;52.678;13.250;2024-03-07T11:23:30;11.70;99.90
7290;DHT22;63176;52.678;13.250;2024-03-07T11:26:08;11.70;99.90
7290;DHT22;63176;52.678;13.250;2024-03-07T11:28:35;11.80;99.90
7290;DHT22;63176;52.678;13.250;2024-03-07T11:31:28;11.70;99.90
7290;DHT22;63176;52.678;13.250;2024-03-07T11:34:15;11.90;99.90
7290;DHT22;63176;52.678;13.250;2024-03-07T11:36:48;12.10;99.90
7290;DHT22;63176;52.678;13.250;2024-03-07T11:39:48;12.40;99.90
7290;DHT22;63176;52.678;13.250;2024-03-07T11:44:51;12.80;99.90
7290;DHT22;63176;52.678;13.250;2024-03-07T11:47:17;12.70;99.90
7290;DHT22;63176;52.678;13.250;2024-03-07T11:49:47;12.70;99.90
7290;DHT22;63176;52.678;13.250;2024-03-07T11:52:18;12.90;99.90
7290;DHT22;63176;52.678;13.250;2024-03-07T11:54:44;13.50;99.90
7290;DHT22;63176;52.678;13.250;2024-03-07T11:57:16;13.70;99.90
7290;DHT22;63176;52.678;13.250;2024-03-07T11:59:44;13.80;99.90
7290;DHT22;63176;52.678;13.250;2024-03-07T12:02:14;13.80;99.90
7290;DHT22;63176;52.678;13.250;2024-03-07T12:04:47;13.40;99.90
7290;DHT22;63176;52.678;13.250;2024-03-07T12:07:12;13.20;99.90
7290;DHT22;63176;52.678;13.250;2024-03-07T12:09:41;13.50;99.90
7290;DHT22;63176;52.678;13.250;2024-03-07T12:12:12;13.80;99.90
7290;DHT22;63176;52.678;13.250;2024-03-07T12:14:38;14.00;99.90
7290;DHT22;63176;52.678;13.250;2024-03-07T12:17:04;14.10;99.90
7290;DHT22;63176;52.678;13.250;2024-03-07T12:19:35;14.30;99.90
7290;DHT22;63176;52.678;13.250;2024-03-07T12:22:08;14.20;99.90
7290;DHT22;63176;52.678;13.250;2024-03-07T12:24:40;14.00;99.90
7290;DHT22;63176;52.678;13.250;2024-03-07T12:27:11;13.90;99.90
7290;DHT22;63176;52.678;13.250;2024-03-07T12:29:38;13.70;99.90
7290;DHT22;63176;52.678;13.250;2024-03-07T12:32:07;13.40;99.90
7290;DHT22;63176;52.678;13.250;2024-03-07T12:34:37;12.90;99.90
7290;DHT22;63176;52.678;13.250;2024-03-07T12:37:07;12.50;99.90
7290;DHT22;63176;52.678;13.250;2024-03-07T12:39:33;12.10;99.90
7290;DHT22;63176;52.678;13.250;2024-03-07T12:42:12;11.80;99.90
7290;DHT22;63176;52.678;13.250;2024-03-07T12:44:44;11.50;99.90
7290;DHT22;63176;52.678;13.250;2024-03-07T12:47:16;11.40;99.90
7290;DHT22;63176;52.678;13.250;2024-03-07T12:49:45;11.20;99.90
7290;DHT22;63176;52.678;13.250;2024-03-07T12:52:11;11.10;99.90
7290;DHT22;63176;52.678;13.250;2024-03-07T12:54:41;11.20;99.90
7290;DHT22;63176;52.678;13.250;2024-03-07T12:57:10;11.10;99.90
7290;DHT22;63176;52.678;13.250;2024-03-07T12:59:38;11.10;99.90
7290;DHT22;63176;52.678;13.250;2024-03-07T13:02:09;11.00;99.90
7290;DHT22;63176;52.678;13.250;2024-03-07T13:04:35;11.00;99.90
7290;DHT22;63176;52.678;13.250;2024-03-07T13:07:04;11.00;99.90
7290;DHT22;63176;52.678;13.250;2024-03-07T13:09:31;10.90;99.90
7290;DHT22;63176;52.678;13.250;2024-03-07T13:11:58;10.80;99.90
7290;DHT22;63176;52.678;13.250;2024-03-07T13:14:26;10.80;99.90
7290;DHT22;63176;52.678;13.250;2024-03-07T13:16:55;10.60;99.90
7290;DHT22;63176;52.678;13.250;2024-03-07T13:19:21;10.60;99.90
7290;DHT22;63176;52.678;13.250;2024-03-07T13:21:47;10.60;99.90
7290;DHT22;63176;52.678;13.250;2024-03-07T13:24:14;10.60;99.90
7290;DHT22;63176;52.678;13.250;2024-03-07T13:26:40;10.60;99.90
7290;DHT22;63176;52.678;13.250;2024-03-07T13:29:07;10.60;99.90
7290;DHT22;63176;52.678;13.250;2024-03-07T13:31:33;10.60;99.90
7290;DHT22;63176;52.678;13.250;2024-03-07T13:33:58;10.60;99.90
7290;DHT22;63176;52.678;13.250;2024-03-07T13:36:27;10.50;99.90
7290;DHT22;63176;52.678;13.250;2024-03-07T13:38:52;10.50;99.90
7290;DHT22;63176;52.678;13.250;2024-03-07T13:41:20;10.50;99.90
7290;DHT22;63176;52.678;13.250;2024-03-07T13:43:45;10.40;99.90
7290;DHT22;63176;52.678;13.250;2024-03-07T13:46:11;10.40;99.90
7290;DHT22;63176;52.678;13.250;2024-03-07T13:48:41;10.40;99.90
7290;DHT22;63176;52.678;13.250;2024-03-07T13:51:08;10.40;99.90
7290;DHT22;63176;52.678;13.250;2024-03-07T13:53:34;10.40;99.90
7290;DHT22;63176;52.678;13.250;2024-03-07T13:56:22;10.40;99.90
7290;DHT22;63176;52.678;13.250;2024-03-07T14:29:00;10.00;99.90
7290;DHT22;63176;52.678;13.250;2024-03-07T14:31:29;10.00;99.90
7290;DHT22;63176;52.678;13.250;2024-03-07T14:37:11;10.00;99.90
7290;DHT22;63176;52.678;13.250;2024-03-07T14:39:37;9.90;99.90
7290;DHT22;63176;52.678;13.250;2024-03-07T14:42:06;9.90;99.90
7290;DHT22;63176;52.678;13.250;2024-03-07T14:44:37;10.00;99.90
7290;DHT22;63176;52.678;13.250;2024-03-07T14:47:06;9.90;99.90
7290;DHT22;63176;52.678;13.250;2024-03-07T14:49:34;10.00;99.90
7290;DHT22;63176;52.678;13.250;2024-03-07T14:52:00;10.00;99.90
7290;DHT22;63176;52.678;13.250;2024-03-07T14:54:26;10.00;99.90
7290;DHT22;63176;52.678;13.250;2024-03-07T14:56:52;10.00;99.90
7290;DHT22;63176;52.678;13.250;2024-03-07T14:59:18;9.90;99.90
7290;DHT22;63176;52.678;13.250;2024-03-07T15:01:44;9.90;99.90
7290;DHT22;63176;52.678;13.250;2024-03-07T15:04:10;9.90;99.90
7290;DHT22;63176;52.678;13.250;2024-03-07T15:06:40;9.90;99.90
7290;DHT22;63176;52.678;13.250;2024-03-07T15:09:07;9.90;99.90
7290;DHT22;63176;52.678;13.250;2024-03-07T15:11:36;9.80;99.90
7290;DHT22;63176;52.678;13.250;2024-03-07T15:14:03;9.80;99.90
7290;DHT22;63176;52.678;13.250;2024-03-07T15:16:37;9.70;99.90
7290;DHT22;63176;52.678;13.250;2024-03-07T15:19:04;9.70;99.90
7290;DHT22;63176;52.678;13.250;2024-03-07T15:21:30;9.60;99.90
7290;DHT22;63176;52.678;13.250;2024-03-07T15:23:56;9.60;99.90
7290;DHT22;63176;52.678;13.250;2024-03-07T15:26:22;9.60;99.90
7290;DHT22;63176;52.678;13.250;2024-03-07T15:28:51;9.50;99.90
7290;DHT22;63176;52.678;13.250;2024-03-07T15:31:17;9.50;99.90
7290;DHT22;63176;52.678;13.250;2024-03-07T15:33:48;9.50;99.90
7290;DHT22;63176;52.678;13.250;2024-03-07T15:36:15;9.50;99.90
7290;DHT22;63176;52.678;13.250;2024-03-07T15:38:41;9.50;99.90
7290;DHT22;63176;52.678;13.250;2024-03-07T15:41:07;9.40;99.90
7290;DHT22;63176;52.678;13.250;2024-03-07T15:43:35;9.30;99.90
7290;DHT22;63176;52.678;13.250;2024-03-07T15:46:02;9.30;99.90
7290;DHT22;63176;52.678;13.250;2024-03-07T15:48:29;9.30;99.90
7290;DHT22;63176;52.678;13.250;2024-03-07T15:50:56;9.20;99.90
7290;DHT22;63176;52.678;13.250;2024-03-07T15:53:25;9.20;99.90
7290;DHT22;63176;52.678;13.250;2024-03-07T15:55:51;9.20;99.90
7290;DHT22;63176;52.678;13.250;2024-03-07T15:58:17;9.10;99.90
7290;DHT22;63176;52.678;13.250;2024-03-07T16:00:43;9.10;99.90
7290;DHT22;63176;52.678;13.250;2024-03-07T16:03:12;9.10;99.90
7290;DHT22;63176;52.678;13.250;2024-03-07T16:05:40;9.00;99.90
7290;DHT22;63176;52.678;13.250;2024-03-07T16:08:09;9.00;99.90
7290;DHT22;63176;52.678;13.250;2024-03-07T16:10:38;9.00;99.90
7290;DHT22;63176;52.678;13.250;2024-03-07T16:13:09;9.00;99.90
7290;DHT22;63176;52.678;13.250;2024-03-07T16:15:36;8.90;99.90
7290;DHT22;63176;52.678;13.250;2024-03-07T16:18:02;8.90;99.90
7290;DHT22;63176;52.678;13.250;2024-03-07T16:20:32;8.80;99.90
7290;DHT22;63176;52.678;13.250;2024-03-07T16:23:01;8.80;99.90
7290;DHT22;63176;52.678;13.250;2024-03-07T16:25:34;8.80;99.90
7290;DHT22;63176;52.678;13.250;2024-03-07T16:28:00;8.70;99.90
7290;DHT22;63176;52.678;13.250;2024-03-07T16:30:27;8.60;99.90